sensor_id;sensor_type;location;lat;lon;timestamp;P1;durP1;ratioP1;P2;durP2;ratioP2
74421;SDS011;62856;51.446;8.360;2023-08-07T00:00:07;0.50;;;0.37;;
74421;SDS011;62856;51.446;8.360;2023-08-07T00:02:36;1.30;;;0.40;;
74421;SDS011;62856;51.446;8.360;2023-08-07T00:05:01;1.05;;;0.50;;
74421;SDS011;62856;51.446;8.360;2023-08-07T00:07:27;2.00;;;0.52;;
74421;SDS011;62856;51.446;8.360;2023-08-07T00:09:52;1.65;;;0.40;;
74421;SDS011;62856;51.446;8.360;2023-08-07T00:12:17;1.23;;;0.47;;
74421;SDS011;62856;51.446;8.360;2023-08-07T00:14:43;0.30;;;0.30;;
74421;SDS011;62856;51.446;8.360;2023-08-07T00:17:08;1.45;;;0.40;;
74421;SDS011;62856;51.446;8.360;2023-08-07T00:19:34;1.05;;;0.60;;
74421;SDS011;62856;51.446;8.360;2023-08-07T00:21:59;1.00;;;0.47;;
74421;SDS011;62856;51.446;8.360;2023-08-07T00:24:25;0.98;;;0.40;;
74421;SDS011;62856;51.446;8.360;2023-08-07T00:26:50;1.52;;;0.47;;
74421;SDS011;62856;51.446;8.360;2023-08-07T00:29:15;1.03;;;0.40;;
74421;SDS011;62856;51.446;8.360;2023-08-07T00:31:40;1.05;;;0.45;;
74421;SDS011;62856;51.446;8.360;2023-08-07T00:34:06;1.70;;;0.40;;
74421;SDS011;62856;51.446;8.360;2023-08-07T00:36:31;0.67;;;0.23;;
74421;SDS011;62856;51.446;8.360;2023-08-07T00:38:59;1.67;;;0.40;;
74421;SDS011;62856;51.446;8.360;2023-08-07T00:41:25;0.80;;;0.10;;
74421;SDS011;62856;51.446;8.360;2023-08-07T00:43:50;1.52;;;0.50;;
74421;SDS011;62856;51.446;8.360;2023-08-07T00:46:16;0.60;;;0.43;;
74421;SDS011;62856;51.446;8.360;2023-08-07T00:48:41;1.08;;;0.45;;
74421;SDS011;62856;51.446;8.360;2023-08-07T00:51:07;0.35;;;0.20;;
74421;SDS011;62856;51.446;8.360;2023-08-07T00:53:33;0.52;;;0.30;;
74421;SDS011;62856;51.446;8.360;2023-08-07T00:56:02;0.30;;;0.30;;
74421;SDS011;62856;51.446;8.360;2023-08-07T00:58:28;0.65;;;0.32;;
74421;SDS011;62856;51.446;8.360;2023-08-07T01:00:53;0.43;;;0.40;;
74421;SDS011;62856;51.446;8.360;2023-08-07T01:03:18;1.02;;;0.32;;
74421;SDS011;62856;51.446;8.360;2023-08-07T01:05:44;0.40;;;0.30;;
74421;SDS011;62856;51.446;8.360;2023-08-07T01:08:09;1.20;;;0.40;;
74421;SDS011;62856;51.446;8.360;2023-08-07T01:10:48;1.77;;;0.60;;
74421;SDS011;62856;51.446;8.360;2023-08-07T01:13:19;0.22;;;0.20;;
74421;SDS011;62856;51.446;8.360;2023-08-07T01:16:04;0.25;;;0.25;;
74421;SDS011;62856;51.446;8.360;2023-08-07T01:18:36;1.00;;;0.47;;
74421;SDS011;62856;51.446;8.360;2023-08-07T01:21:03;0.20;;;0.20;;
74421;SDS011;62856;51.446;8.360;2023-08-07T01:23:28;1.23;;;0.63;;
74421;SDS011;62856;51.446;8.360;2023-08-07T01:25:54;1.17;;;0.30;;
74421;SDS011;62856;51.446;8.360;2023-08-07T01:28:25;1.90;;;0.75;;
74421;SDS011;62856;51.446;8.360;2023-08-07T01:30:59;1.02;;;0.30;;
74421;SDS011;62856;51.446;8.360;2023-08-07T01:33:32;0.40;;;0.15;;
74421;SDS011;62856;51.446;8.360;2023-08-07T01:36:05;0.40;;;0.20;;
74421;SDS011;62856;51.446;8.360;2023-08-07T01:40:58;0.30;;;0.30;;
74421;SDS011;62856;51.446;8.360;2023-08-07T01:43:25;0.30;;;0.30;;
74421;SDS011;62856;51.446;8.360;2023-08-07T01:45:52;0.28;;;0.28;;
74421;SDS011;62856;51.446;8.360;2023-08-07T01:48:17;0.40;;;0.15;;
74421;SDS011;62856;51.446;8.360;2023-08-07T01:50:42;3.67;;;0.30;;
74421;SDS011;62856;51.446;8.360;2023-08-07T01:53:08;0.35;;;0.30;;
74421;SDS011;62856;51.446;8.360;2023-08-07T01:55:33;0.90;;;0.40;;
74421;SDS011;62856;51.446;8.360;2023-08-07T01:57:58;0.90;;;0.22;;
74421;SDS011;62856;51.446;8.360;2023-08-07T02:00:24;0.20;;;0.20;;
74421;SDS011;62856;51.446;8.360;2023-08-07T02:02:49;0.75;;;0.30;;
74421;SDS011;62856;51.446;8.360;2023-08-07T02:05:15;0.95;;;0.30;;
74421;SDS011;62856;51.446;8.360;2023-08-07T02:07:41;0.20;;;0.20;;
74421;SDS011;62856;51.446;8.360;2023-08-07T02:10:07;0.40;;;0.20;;
74421;SDS011;62856;51.446;8.360;2023-08-07T02:12:32;0.20;;;0.20;;
74421;SDS011;62856;51.446;8.360;2023-08-07T02:14:58;0.57;;;0.20;;
74421;SDS011;62856;51.446;8.360;2023-08-07T02:17:25;1.90;;;0.30;;
74421;SDS011;62856;51.446;8.360;2023-08-07T02:19:51;0.98;;;0.40;;
74421;SDS011;62856;51.446;8.360;2023-08-07T02:22:16;0.47;;;0.30;;
74421;SDS011;62856;51.446;8.360;2023-08-07T02:24:41;0.60;;;0.22;;
74421;SDS011;62856;51.446;8.360;2023-08-07T02:27:07;0.45;;;0.20;;
74421;SDS011;62856;51.446;8.360;2023-08-07T02:29:32;2.22;;;0.40;;
74421;SDS011;62856;51.446;8.360;2023-08-07T02:31:59;0.20;;;0.20;;
74421;SDS011;62856;51.446;8.360;2023-08-07T02:34:26;0.40;;;0.20;;
74421;SDS011;62856;51.446;8.360;2023-08-07T02:36:52;1.20;;;0.40;;
74421;SDS011;62856;51.446;8.360;2023-08-07T02:39:17;0.50;;;0.20;;
74421;SDS011;62856;51.446;8.360;2023-08-07T02:41:42;0.85;;;0.43;;
74421;SDS011;62856;51.446;8.360;2023-08-07T02:44:08;1.33;;;0.28;;
74421;SDS011;62856;51.446;8.360;2023-08-07T02:46:33;0.43;;;0.10;;
74421;SDS011;62856;51.446;8.360;2023-08-07T02:51:26;0.50;;;0.27;;
74421;SDS011;62856;51.446;8.360;2023-08-07T02:53:51;0.90;;;0.32;;
74421;SDS011;62856;51.446;8.360;2023-08-07T02:56:16;1.13;;;0.20;;
74421;SDS011;62856;51.446;8.360;2023-08-07T02:58:42;0.88;;;0.40;;
74421;SDS011;62856;51.446;8.360;2023-08-07T03:01:07;0.50;;;0.30;;
74421;SDS011;62856;51.446;8.360;2023-08-07T03:03:33;0.10;;;0.10;;
74421;SDS011;62856;51.446;8.360;2023-08-07T03:05:58;0.17;;;0.17;;
74421;SDS011;62856;51.446;8.360;2023-08-07T03:08:23;0.15;;;0.10;;
74421;SDS011;62856;51.446;8.360;2023-08-07T03:10:49;0.93;;;0.30;;
74421;SDS011;62856;51.446;8.360;2023-08-07T03:13:16;0.50;;;0.25;;
74421;SDS011;62856;51.446;8.360;2023-08-07T03:15:41;0.27;;;0.27;;
74421;SDS011;62856;51.446;8.360;2023-08-07T03:18:07;0.27;;;0.27;;
74421;SDS011;62856;51.446;8.360;2023-08-07T03:20:32;0.73;;;0.30;;
74421;SDS011;62856;51.446;8.360;2023-08-07T03:22:57;0.80;;;0.20;;
74421;SDS011;62856;51.446;8.360;2023-08-07T03:25:22;0.93;;;0.50;;
74421;SDS011;62856;51.446;8.360;2023-08-07T03:27:48;0.30;;;0.20;;
74421;SDS011;62856;51.446;8.360;2023-08-07T03:30:13;0.28;;;0.20;;
74421;SDS011;62856;51.446;8.360;2023-08-07T03:32:38;0.10;;;0.10;;
74421;SDS011;62856;51.446;8.360;2023-08-07T03:35:04;0.20;;;0.20;;
74421;SDS011;62856;51.446;8.360;2023-08-07T03:37:29;0.40;;;0.22;;
74421;SDS011;62856;51.446;8.360;2023-08-07T03:39:54;1.05;;;0.40;;
74421;SDS011;62856;51.446;8.360;2023-08-07T03:42:20;0.63;;;0.30;;
74421;SDS011;62856;51.446;8.360;2023-08-07T03:44:45;0.65;;;0.30;;
74421;SDS011;62856;51.446;8.360;2023-08-07T03:47:10;0.90;;;0.30;;
74421;SDS011;62856;51.446;8.360;2023-08-07T03:49:36;0.27;;;0.20;;
74421;SDS011;62856;51.446;8.360;2023-08-07T03:52:01;0.98;;;0.30;;
74421;SDS011;62856;51.446;8.360;2023-08-07T03:54:26;0.28;;;0.10;;
74421;SDS011;62856;51.446;8.360;2023-08-07T03:56:52;0.50;;;0.28;;
74421;SDS011;62856;51.446;8.360;2023-08-07T03:59:17;0.70;;;0.20;;
74421;SDS011;62856;51.446;8.360;2023-08-07T04:01:42;0.40;;;0.20;;
74421;SDS011;62856;51.446;8.360;2023-08-07T04:04:08;0.10;;;0.10;;
74421;SDS011;62856;51.446;8.360;2023-08-07T04:06:34;0.15;;;0.13;;
74421;SDS011;62856;51.446;8.360;2023-08-07T04:08:59;0.20;;;0.20;;
74421;SDS011;62856;51.446;8.360;2023-08-07T04:11:24;1.23;;;0.50;;
74421;SDS011;62856;51.446;8.360;2023-08-07T04:16:17;0.20;;;0.20;;
74421;SDS011;62856;51.446;8.360;2023-08-07T04:18:42;0.20;;;0.20;;
74421;SDS011;62856;51.446;8.360;2023-08-07T04:21:08;1.17;;;0.40;;
74421;SDS011;62856;51.446;8.360;2023-08-07T04:23:33;0.30;;;0.20;;
74421;SDS011;62856;51.446;8.360;2023-08-07T04:25:59;0.10;;;0.10;;
74421;SDS011;62856;51.446;8.360;2023-08-07T04:28:24;0.15;;;0.15;;
74421;SDS011;62856;51.446;8.360;2023-08-07T04:30:50;0.20;;;0.13;;
74421;SDS011;62856;51.446;8.360;2023-08-07T04:33:16;0.43;;;0.17;;
74421;SDS011;62856;51.446;8.360;2023-08-07T04:35:42;0.10;;;0.10;;
74421;SDS011;62856;51.446;8.360;2023-08-07T04:38:07;0.32;;;0.22;;
74421;SDS011;62856;51.446;8.360;2023-08-07T04:40:33;0.20;;;0.20;;
74421;SDS011;62856;51.446;8.360;2023-08-07T04:42:58;0.20;;;0.20;;
74421;SDS011;62856;51.446;8.360;2023-08-07T04:45:23;0.10;;;0.10;;
74421;SDS011;62856;51.446;8.360;2023-08-07T04:47:49;0.40;;;0.10;;
74421;SDS011;62856;51.446;8.360;2023-08-07T04:50:14;1.52;;;0.20;;
74421;SDS011;62856;51.446;8.360;2023-08-07T04:52:39;1.33;;;0.30;;
74421;SDS011;62856;51.446;8.360;2023-08-07T04:55:05;3.08;;;0.30;;
74421;SDS011;62856;51.446;8.360;2023-08-07T04:57:30;1.00;;;0.30;;
74421;SDS011;62856;51.446;8.360;2023-08-07T04:59:56;3.53;;;0.40;;
74421;SDS011;62856;51.446;8.360;2023-08-07T05:02:21;1.15;;;0.28;;
74421;SDS011;62856;51.446;8.360;2023-08-07T05:04:46;0.08;;;0.08;;
74421;SDS011;62856;51.446;8.360;2023-08-07T05:07:12;0.40;;;0.20;;
74421;SDS011;62856;51.446;8.360;2023-08-07T05:09:37;0.40;;;0.17;;
74421;SDS011;62856;51.446;8.360;2023-08-07T05:12:03;0.13;;;0.10;;
74421;SDS011;62856;51.446;8.360;2023-08-07T05:14:29;0.95;;;0.30;;
74421;SDS011;62856;51.446;8.360;2023-08-07T05:16:55;0.20;;;0.20;;
74421;SDS011;62856;51.446;8.360;2023-08-07T05:19:20;0.70;;;0.20;;
74421;SDS011;62856;51.446;8.360;2023-08-07T05:21:47;0.55;;;0.20;;
74421;SDS011;62856;51.446;8.360;2023-08-07T05:24:15;0.20;;;0.20;;
74421;SDS011;62856;51.446;8.360;2023-08-07T05:26:40;1.55;;;0.45;;
74421;SDS011;62856;51.446;8.360;2023-08-07T05:29:06;0.75;;;0.30;;
74421;SDS011;62856;51.446;8.360;2023-08-07T05:31:32;0.80;;;0.40;;
74421;SDS011;62856;51.446;8.360;2023-08-07T05:33:58;0.93;;;0.38;;
74421;SDS011;62856;51.446;8.360;2023-08-07T05:36:23;1.43;;;0.20;;
74421;SDS011;62856;51.446;8.360;2023-08-07T05:38:48;0.40;;;0.22;;
74421;SDS011;62856;51.446;8.360;2023-08-07T05:41:14;1.37;;;0.40;;
74421;SDS011;62856;51.446;8.360;2023-08-07T05:43:39;0.52;;;0.20;;
74421;SDS011;62856;51.446;8.360;2023-08-07T05:46:05;0.50;;;0.30;;
74421;SDS011;62856;51.446;8.360;2023-08-07T05:48:30;0.70;;;0.30;;
74421;SDS011;62856;51.446;8.360;2023-08-07T05:50:55;0.55;;;0.25;;
74421;SDS011;62856;51.446;8.360;2023-08-07T05:53:20;1.23;;;0.40;;
74421;SDS011;62856;51.446;8.360;2023-08-07T05:55:46;1.92;;;0.40;;
74421;SDS011;62856;51.446;8.360;2023-08-07T05:58:11;0.27;;;0.23;;
74421;SDS011;62856;51.446;8.360;2023-08-07T06:00:37;0.55;;;0.40;;
74421;SDS011;62856;51.446;8.360;2023-08-07T06:03:02;0.38;;;0.30;;
74421;SDS011;62856;51.446;8.360;2023-08-07T06:05:28;1.42;;;0.30;;
74421;SDS011;62856;51.446;8.360;2023-08-07T06:07:53;1.88;;;0.50;;
74421;SDS011;62856;51.446;8.360;2023-08-07T06:10:19;0.50;;;0.50;;
74421;SDS011;62856;51.446;8.360;2023-08-07T06:12:44;1.00;;;0.30;;
74421;SDS011;62856;51.446;8.360;2023-08-07T06:15:09;0.83;;;0.40;;
74421;SDS011;62856;51.446;8.360;2023-08-07T06:17:35;0.70;;;0.32;;
74421;SDS011;62856;51.446;8.360;2023-08-07T06:20:00;0.82;;;0.20;;
74421;SDS011;62856;51.446;8.360;2023-08-07T06:22:25;3.05;;;0.60;;
74421;SDS011;62856;51.446;8.360;2023-08-07T06:24:51;2.40;;;0.70;;
74421;SDS011;62856;51.446;8.360;2023-08-07T06:27:16;1.33;;;0.60;;
74421;SDS011;62856;51.446;8.360;2023-08-07T06:29:41;2.50;;;0.82;;
74421;SDS011;62856;51.446;8.360;2023-08-07T06:32:07;3.40;;;0.60;;
74421;SDS011;62856;51.446;8.360;2023-08-07T06:34:32;2.55;;;0.85;;
74421;SDS011;62856;51.446;8.360;2023-08-07T06:36:57;3.67;;;0.70;;
74421;SDS011;62856;51.446;8.360;2023-08-07T06:39:23;1.98;;;0.63;;
74421;SDS011;62856;51.446;8.360;2023-08-07T06:41:48;1.60;;;0.70;;
74421;SDS011;62856;51.446;8.360;2023-08-07T06:44:13;2.10;;;0.50;;
74421;SDS011;62856;51.446;8.360;2023-08-07T06:46:39;1.13;;;0.60;;
74421;SDS011;62856;51.446;8.360;2023-08-07T06:49:04;1.33;;;0.32;;
74421;SDS011;62856;51.446;8.360;2023-08-07T06:51:29;1.75;;;0.50;;
74421;SDS011;62856;51.446;8.360;2023-08-07T06:53:55;2.97;;;0.73;;
74421;SDS011;62856;51.446;8.360;2023-08-07T06:56:20;1.15;;;0.50;;
74421;SDS011;62856;51.446;8.360;2023-08-07T06:58:46;2.40;;;0.55;;
74421;SDS011;62856;51.446;8.360;2023-08-07T07:01:11;1.00;;;0.43;;
74421;SDS011;62856;51.446;8.360;2023-08-07T07:03:36;1.20;;;0.63;;
74421;SDS011;62856;51.446;8.360;2023-08-07T07:06:01;2.07;;;0.60;;
74421;SDS011;62856;51.446;8.360;2023-08-07T07:08:27;2.50;;;0.60;;
74421;SDS011;62856;51.446;8.360;2023-08-07T07:10:52;0.50;;;0.50;;
74421;SDS011;62856;51.446;8.360;2023-08-07T07:13:18;1.63;;;0.60;;
74421;SDS011;62856;51.446;8.360;2023-08-07T07:15:43;2.10;;;0.73;;
74421;SDS011;62856;51.446;8.360;2023-08-07T07:18:08;1.17;;;0.60;;
74421;SDS011;62856;51.446;8.360;2023-08-07T07:20:34;2.28;;;0.77;;
74421;SDS011;62856;51.446;8.360;2023-08-07T07:22:59;1.43;;;0.50;;
74421;SDS011;62856;51.446;8.360;2023-08-07T07:25:24;4.50;;;1.15;;
74421;SDS011;62856;51.446;8.360;2023-08-07T07:27:50;2.58;;;0.75;;
74421;SDS011;62856;51.446;8.360;2023-08-07T07:30:15;3.78;;;0.88;;
74421;SDS011;62856;51.446;8.360;2023-08-07T07:32:40;2.38;;;0.75;;
74421;SDS011;62856;51.446;8.360;2023-08-07T07:35:06;2.20;;;0.80;;
74421;SDS011;62856;51.446;8.360;2023-08-07T07:37:32;3.95;;;0.85;;
74421;SDS011;62856;51.446;8.360;2023-08-07T07:39:57;4.78;;;1.00;;
74421;SDS011;62856;51.446;8.360;2023-08-07T07:42:22;1.73;;;0.60;;
74421;SDS011;62856;51.446;8.360;2023-08-07T07:44:48;2.88;;;0.70;;
74421;SDS011;62856;51.446;8.360;2023-08-07T07:47:13;3.42;;;1.10;;
74421;SDS011;62856;51.446;8.360;2023-08-07T07:49:38;3.80;;;1.00;;
74421;SDS011;62856;51.446;8.360;2023-08-07T07:52:04;2.70;;;0.85;;
74421;SDS011;62856;51.446;8.360;2023-08-07T07:54:30;4.18;;;1.25;;
74421;SDS011;62856;51.446;8.360;2023-08-07T07:56:55;3.78;;;0.95;;
74421;SDS011;62856;51.446;8.360;2023-08-07T07:59:21;4.97;;;1.10;;
74421;SDS011;62856;51.446;8.360;2023-08-07T08:01:46;4.53;;;0.95;;
74421;SDS011;62856;51.446;8.360;2023-08-07T08:04:11;3.27;;;1.10;;
74421;SDS011;62856;51.446;8.360;2023-08-07T08:06:37;2.13;;;0.90;;
74421;SDS011;62856;51.446;8.360;2023-08-07T08:09:02;4.57;;;0.85;;
74421;SDS011;62856;51.446;8.360;2023-08-07T08:11:29;2.10;;;0.70;;
74421;SDS011;62856;51.446;8.360;2023-08-07T08:13:55;2.25;;;0.75;;
74421;SDS011;62856;51.446;8.360;2023-08-07T08:16:20;3.40;;;0.70;;
74421;SDS011;62856;51.446;8.360;2023-08-07T08:18:46;3.42;;;0.80;;
74421;SDS011;62856;51.446;8.360;2023-08-07T08:21:11;4.13;;;0.90;;
74421;SDS011;62856;51.446;8.360;2023-08-07T08:23:36;3.75;;;1.10;;
74421;SDS011;62856;51.446;8.360;2023-08-07T08:26:02;3.75;;;1.00;;
74421;SDS011;62856;51.446;8.360;2023-08-07T08:28:27;5.35;;;1.13;;
74421;SDS011;62856;51.446;8.360;2023-08-07T08:30:52;3.47;;;1.20;;
74421;SDS011;62856;51.446;8.360;2023-08-07T08:33:17;3.75;;;1.02;;
74421;SDS011;62856;51.446;8.360;2023-08-07T08:35:43;2.88;;;1.00;;
74421;SDS011;62856;51.446;8.360;2023-08-07T08:38:09;2.83;;;1.02;;
74421;SDS011;62856;51.446;8.360;2023-08-07T08:40:34;3.60;;;1.00;;
74421;SDS011;62856;51.446;8.360;2023-08-07T08:43:02;3.15;;;1.10;;
74421;SDS011;62856;51.446;8.360;2023-08-07T08:45:30;3.40;;;1.10;;
74421;SDS011;62856;51.446;8.360;2023-08-07T08:48:00;3.30;;;1.10;;
74421;SDS011;62856;51.446;8.360;2023-08-07T08:50:27;3.53;;;0.90;;
74421;SDS011;62856;51.446;8.360;2023-08-07T08:52:53;3.33;;;1.10;;
74421;SDS011;62856;51.446;8.360;2023-08-07T08:57:46;1.45;;;0.85;;
74421;SDS011;62856;51.446;8.360;2023-08-07T09:00:13;3.25;;;1.10;;
74421;SDS011;62856;51.446;8.360;2023-08-07T09:02:51;5.45;;;1.08;;
74421;SDS011;62856;51.446;8.360;2023-08-07T09:05:17;3.97;;;1.13;;
74421;SDS011;62856;51.446;8.360;2023-08-07T09:07:47;4.88;;;1.25;;
74421;SDS011;62856;51.446;8.360;2023-08-07T09:10:13;3.75;;;1.08;;
74421;SDS011;62856;51.446;8.360;2023-08-07T09:12:41;4.38;;;1.10;;
74421;SDS011;62856;51.446;8.360;2023-08-07T09:15:10;3.15;;;1.20;;
74421;SDS011;62856;51.446;8.360;2023-08-07T09:17:40;3.72;;;1.33;;
74421;SDS011;62856;51.446;8.360;2023-08-07T09:20:09;2.33;;;0.77;;
74421;SDS011;62856;51.446;8.360;2023-08-07T09:22:38;1.50;;;0.90;;
74421;SDS011;62856;51.446;8.360;2023-08-07T09:25:05;5.75;;;0.98;;
74421;SDS011;62856;51.446;8.360;2023-08-07T09:27:30;1.98;;;0.90;;
74421;SDS011;62856;51.446;8.360;2023-08-07T09:29:56;1.40;;;0.70;;
74421;SDS011;62856;51.446;8.360;2023-08-07T09:32:23;3.70;;;0.90;;
74421;SDS011;62856;51.446;8.360;2023-08-07T09:34:49;1.52;;;0.80;;
74421;SDS011;62856;51.446;8.360;2023-08-07T09:37:16;4.15;;;0.90;;
74421;SDS011;62856;51.446;8.360;2023-08-07T09:39:41;3.45;;;1.15;;
74421;SDS011;62856;51.446;8.360;2023-08-07T09:42:13;5.10;;;0.90;;
74421;SDS011;62856;51.446;8.360;2023-08-07T09:44:42;2.92;;;1.05;;
74421;SDS011;62856;51.446;8.360;2023-08-07T09:47:14;4.82;;;1.05;;
74421;SDS011;62856;51.446;8.360;2023-08-07T09:49:40;2.25;;;0.85;;
74421;SDS011;62856;51.446;8.360;2023-08-07T09:52:07;3.28;;;1.08;;
74421;SDS011;62856;51.446;8.360;2023-08-07T09:54:34;2.00;;;1.00;;
74421;SDS011;62856;51.446;8.360;2023-08-07T09:57:00;3.05;;;1.02;;
74421;SDS011;62856;51.446;8.360;2023-08-07T09:59:27;4.10;;;1.10;;
74421;SDS011;62856;51.446;8.360;2023-08-07T10:01:53;2.10;;;0.88;;
74421;SDS011;62856;51.446;8.360;2023-08-07T10:04:20;2.65;;;0.93;;
74421;SDS011;62856;51.446;8.360;2023-08-07T10:06:46;1.58;;;0.85;;
74421;SDS011;62856;51.446;8.360;2023-08-07T10:09:12;2.42;;;1.00;;
74421;SDS011;62856;51.446;8.360;2023-08-07T10:11:38;3.15;;;0.85;;
74421;SDS011;62856;51.446;8.360;2023-08-07T10:14:05;1.80;;;0.90;;
74421;SDS011;62856;51.446;8.360;2023-08-07T10:16:30;2.88;;;0.98;;
74421;SDS011;62856;51.446;8.360;2023-08-07T10:18:56;3.10;;;0.93;;
74421;SDS011;62856;51.446;8.360;2023-08-07T10:21:23;2.50;;;0.80;;
74421;SDS011;62856;51.446;8.360;2023-08-07T10:23:50;3.97;;;1.05;;
74421;SDS011;62856;51.446;8.360;2023-08-07T10:26:19;2.28;;;0.85;;
74421;SDS011;62856;51.446;8.360;2023-08-07T10:28:46;3.97;;;1.10;;
74421;SDS011;62856;51.446;8.360;2023-08-07T10:31:14;3.70;;;1.05;;
74421;SDS011;62856;51.446;8.360;2023-08-07T10:33:40;3.88;;;0.95;;
74421;SDS011;62856;51.446;8.360;2023-08-07T10:36:10;2.45;;;1.00;;
74421;SDS011;62856;51.446;8.360;2023-08-07T10:38:35;3.67;;;0.90;;
74421;SDS011;62856;51.446;8.360;2023-08-07T10:41:02;4.60;;;1.05;;
74421;SDS011;62856;51.446;8.360;2023-08-07T10:43:36;3.97;;;1.10;;
74421;SDS011;62856;51.446;8.360;2023-08-07T10:46:10;3.25;;;1.10;;
74421;SDS011;62856;51.446;8.360;2023-08-07T10:48:47;2.88;;;0.88;;
74421;SDS011;62856;51.446;8.360;2023-08-07T10:51:19;5.18;;;1.10;;
74421;SDS011;62856;51.446;8.360;2023-08-07T10:53:46;3.72;;;1.10;;
74421;SDS011;62856;51.446;8.360;2023-08-07T10:56:17;5.47;;;1.13;;
74421;SDS011;62856;51.446;8.360;2023-08-07T10:58:47;3.17;;;0.93;;
74421;SDS011;62856;51.446;8.360;2023-08-07T11:01:39;5.93;;;0.98;;
74421;SDS011;62856;51.446;8.360;2023-08-07T11:04:09;3.38;;;0.90;;
74421;SDS011;62856;51.446;8.360;2023-08-07T11:06:38;5.38;;;1.13;;
74421;SDS011;62856;51.446;8.360;2023-08-07T11:09:04;4.97;;;1.20;;
74421;SDS011;62856;51.446;8.360;2023-08-07T11:11:39;4.22;;;1.05;;
74421;SDS011;62856;51.446;8.360;2023-08-07T11:14:06;3.97;;;1.10;;
74421;SDS011;62856;51.446;8.360;2023-08-07T11:16:33;2.60;;;0.90;;
74421;SDS011;62856;51.446;8.360;2023-08-07T11:18:59;3.10;;;1.05;;
74421;SDS011;62856;51.446;8.360;2023-08-07T11:21:25;5.07;;;1.17;;
74421;SDS011;62856;51.446;8.360;2023-08-07T11:23:51;3.75;;;1.17;;
74421;SDS011;62856;51.446;8.360;2023-08-07T11:26:16;4.43;;;1.30;;
74421;SDS011;62856;51.446;8.360;2023-08-07T11:28:42;3.30;;;1.00;;
74421;SDS011;62856;51.446;8.360;2023-08-07T11:31:08;4.75;;;1.17;;
74421;SDS011;62856;51.446;8.360;2023-08-07T11:33:35;2.92;;;0.98;;
74421;SDS011;62856;51.446;8.360;2023-08-07T11:36:01;2.67;;;0.95;;
74421;SDS011;62856;51.446;8.360;2023-08-07T11:38:30;3.95;;;1.00;;
74421;SDS011;62856;51.446;8.360;2023-08-07T11:40:58;5.47;;;1.23;;
74421;SDS011;62856;51.446;8.360;2023-08-07T11:45:51;4.68;;;1.10;;
74421;SDS011;62856;51.446;8.360;2023-08-07T11:48:17;6.70;;;1.35;;
74421;SDS011;62856;51.446;8.360;2023-08-07T11:50:42;4.25;;;1.23;;
74421;SDS011;62856;51.446;8.360;2023-08-07T11:53:07;4.68;;;1.45;;
74421;SDS011;62856;51.446;8.360;2023-08-07T11:55:33;1.85;;;0.80;;
74421;SDS011;62856;51.446;8.360;2023-08-07T11:57:59;3.70;;;1.10;;
74421;SDS011;62856;51.446;8.360;2023-08-07T12:00:28;4.18;;;1.25;;
74421;SDS011;62856;51.446;8.360;2023-08-07T12:02:54;2.97;;;0.82;;
74421;SDS011;62856;51.446;8.360;2023-08-07T12:05:19;4.90;;;1.20;;
74421;SDS011;62856;51.446;8.360;2023-08-07T12:07:46;3.38;;;1.00;;
74421;SDS011;62856;51.446;8.360;2023-08-07T12:10:12;3.67;;;1.63;;
74421;SDS011;62856;51.446;8.360;2023-08-07T12:12:38;5.03;;;1.30;;
74421;SDS011;62856;51.446;8.360;2023-08-07T12:15:06;4.32;;;1.20;;
74421;SDS011;62856;51.446;8.360;2023-08-07T12:17:32;3.88;;;1.38;;
74421;SDS011;62856;51.446;8.360;2023-08-07T12:19:58;4.10;;;1.05;;
74421;SDS011;62856;51.446;8.360;2023-08-07T12:22:23;2.70;;;0.90;;
74421;SDS011;62856;51.446;8.360;2023-08-07T12:24:52;3.42;;;1.17;;
74421;SDS011;62856;51.446;8.360;2023-08-07T12:27:18;4.78;;;1.10;;
74421;SDS011;62856;51.446;8.360;2023-08-07T12:29:44;3.83;;;1.30;;
74421;SDS011;62856;51.446;8.360;2023-08-07T12:32:09;5.18;;;1.05;;
74421;SDS011;62856;51.446;8.360;2023-08-07T12:34:35;4.88;;;1.10;;
74421;SDS011;62856;51.446;8.360;2023-08-07T12:37:01;6.43;;;1.45;;
74421;SDS011;62856;51.446;8.360;2023-08-07T12:39:26;5.20;;;1.38;;
74421;SDS011;62856;51.446;8.360;2023-08-07T12:41:51;4.70;;;1.30;;
74421;SDS011;62856;51.446;8.360;2023-08-07T12:44:17;5.40;;;1.50;;
74421;SDS011;62856;51.446;8.360;2023-08-07T12:46:42;5.88;;;1.27;;
74421;SDS011;62856;51.446;8.360;2023-08-07T12:49:10;3.60;;;1.00;;
74421;SDS011;62856;51.446;8.360;2023-08-07T12:51:36;4.70;;;1.20;;
74421;SDS011;62856;51.446;8.360;2023-08-07T12:54:01;4.80;;;1.30;;
74421;SDS011;62856;51.446;8.360;2023-08-07T12:56:26;4.90;;;1.10;;
74421;SDS011;62856;51.446;8.360;2023-08-07T12:58:52;4.10;;;1.37;;
74421;SDS011;62856;51.446;8.360;2023-08-07T13:01:17;4.47;;;1.10;;
74421;SDS011;62856;51.446;8.360;2023-08-07T13:03:42;4.27;;;1.13;;
74421;SDS011;62856;51.446;8.360;2023-08-07T13:06:07;4.27;;;1.10;;
74421;SDS011;62856;51.446;8.360;2023-08-07T13:08:34;4.22;;;1.25;;
74421;SDS011;62856;51.446;8.360;2023-08-07T13:11:00;5.05;;;1.25;;
74421;SDS011;62856;51.446;8.360;2023-08-07T13:13:26;3.28;;;1.00;;
74421;SDS011;62856;51.446;8.360;2023-08-07T13:15:53;4.28;;;1.10;;
74421;SDS011;62856;51.446;8.360;2023-08-07T13:18:18;4.97;;;1.10;;
74421;SDS011;62856;51.446;8.360;2023-08-07T13:20:44;3.53;;;1.08;;
74421;SDS011;62856;51.446;8.360;2023-08-07T13:23:09;3.85;;;0.98;;
74421;SDS011;62856;51.446;8.360;2023-08-07T13:25:35;4.63;;;1.30;;
74421;SDS011;62856;51.446;8.360;2023-08-07T13:28:01;4.07;;;1.30;;
74421;SDS011;62856;51.446;8.360;2023-08-07T13:30:31;6.05;;;1.40;;
74421;SDS011;62856;51.446;8.360;2023-08-07T13:32:57;4.72;;;1.42;;
74421;SDS011;62856;51.446;8.360;2023-08-07T13:35:22;4.90;;;1.10;;
74421;SDS011;62856;51.446;8.360;2023-08-07T13:37:48;2.83;;;1.05;;
74421;SDS011;62856;51.446;8.360;2023-08-07T13:40:13;4.27;;;1.13;;
74421;SDS011;62856;51.446;8.360;2023-08-07T13:42:39;2.72;;;0.80;;
74421;SDS011;62856;51.446;8.360;2023-08-07T13:45:04;4.40;;;1.20;;
74421;SDS011;62856;51.446;8.360;2023-08-07T13:47:30;3.65;;;1.00;;
74421;SDS011;62856;51.446;8.360;2023-08-07T13:49:55;2.20;;;0.90;;
74421;SDS011;62856;51.446;8.360;2023-08-07T13:52:21;3.65;;;1.00;;
74421;SDS011;62856;51.446;8.360;2023-08-07T13:54:46;3.67;;;1.00;;
74421;SDS011;62856;51.446;8.360;2023-08-07T13:57:12;2.80;;;1.10;;
74421;SDS011;62856;51.446;8.360;2023-08-07T13:59:37;5.28;;;1.38;;
74421;SDS011;62856;51.446;8.360;2023-08-07T14:02:02;3.17;;;1.00;;
74421;SDS011;62856;51.446;8.360;2023-08-07T14:04:28;4.32;;;1.20;;
74421;SDS011;62856;51.446;8.360;2023-08-07T14:06:53;4.57;;;1.30;;
74421;SDS011;62856;51.446;8.360;2023-08-07T14:09:18;3.47;;;1.00;;
74421;SDS011;62856;51.446;8.360;2023-08-07T14:11:46;3.35;;;1.10;;
74421;SDS011;62856;51.446;8.360;2023-08-07T14:14:12;6.57;;;1.05;;
74421;SDS011;62856;51.446;8.360;2023-08-07T14:16:37;2.53;;;0.85;;
74421;SDS011;62856;51.446;8.360;2023-08-07T14:19:02;3.75;;;1.00;;
74421;SDS011;62856;51.446;8.360;2023-08-07T14:21:28;3.30;;;1.20;;
74421;SDS011;62856;51.446;8.360;2023-08-07T14:23:53;4.27;;;1.97;;
74421;SDS011;62856;51.446;8.360;2023-08-07T14:26:18;3.80;;;1.00;;
74421;SDS011;62856;51.446;8.360;2023-08-07T14:28:45;2.75;;;1.00;;
74421;SDS011;62856;51.446;8.360;2023-08-07T14:31:11;6.15;;;1.30;;
74421;SDS011;62856;51.446;8.360;2023-08-07T14:33:36;4.00;;;1.10;;
74421;SDS011;62856;51.446;8.360;2023-08-07T14:36:02;4.60;;;1.15;;
74421;SDS011;62856;51.446;8.360;2023-08-07T14:38:28;4.80;;;1.13;;
74421;SDS011;62856;51.446;8.360;2023-08-07T14:40:54;4.95;;;1.30;;
74421;SDS011;62856;51.446;8.360;2023-08-07T14:43:20;3.30;;;0.98;;
74421;SDS011;62856;51.446;8.360;2023-08-07T14:45:45;4.25;;;1.15;;
74421;SDS011;62856;51.446;8.360;2023-08-07T14:48:12;3.45;;;1.20;;
74421;SDS011;62856;51.446;8.360;2023-08-07T14:50:38;5.35;;;1.27;;
74421;SDS011;62856;51.446;8.360;2023-08-07T14:53:04;3.83;;;1.00;;